Aegean Navigator — SWBI — position and weather

sailwx.info

Track history (hours):
 
Tides and Currents Weather Stations Pressure Air Temp Water Temp Dewpoint Dewpoint Depression Visibility Wind Speed Wind Dir Waves Ship Positions

Aegean Navigator

Last reported at 2017-Mar-10 16:11 UTC. Time now 2017-Mar-27 08:42 UTC.
Position N 35°52' E 015°45'.
Warning: this ship's position is 16 days out of date.

Length 274 m; draft 16.7 m.

Type: Ship. MMSI: 240634000.

Date/timePositionNaut miles runAvg speedWind from/ knotsBaromVisibWave heightAir tempDewpointWater temp
2017-Mar-10 16:11N 35°52' E 015°45'711.6
2017-Mar-10 15:33N 35°54' E 015°36'1211.6
2017-Mar-10 14:34N 35°57' E 015°22'1211.6
2017-Mar-10 13:34N 36°02' E 015°09'1111.3
2017-Mar-10 12:33N 36°04' E 014°55'1211.7
2017-Mar-10 11:33N 36°09' E 014°42'1211.8
2017-Mar-10 10:34N 36°14' E 014°29'1211.8
2017-Mar-10 09:33N 36°19' E 014°16'1211.9
2017-Mar-10 08:34N 36°24' E 014°02'1211.7
2017-Mar-10 07:33N 36°28' E 013°49'1211.7
2017-Mar-10 06:33N 36°33' E 013°35'1212.0
2017-Mar-10 05:34N 36°37' E 013°22'1111.4
2017-Mar-10 04:34N 36°42' E 013°09'1111.3
2017-Mar-10 03:33N 36°46' E 012°55'  
2017-Mar-07 22:31N 36°37' W 000°01'1111.4
2017-Mar-07 21:33N 36°35' W 000°14'1111.1
2017-Mar-07 20:34N 36°33' W 000°28'1411.4
2017-Mar-07 19:20N 36°30' W 000°45'19212.0
2017-Mar-07 03:19N 36°02' W 004°41'1012.5
2017-Mar-07 02:33N 36°02' W 004°53'1312.6
2017-Mar-07 01:33N 36°01' W 005°08'1514.8
2017-Mar-07 00:33N 35°58' W 005°26'1514.6
2017-Mar-06 23:33N 35°55' W 005°44'20011.0
2017-Mar-06 05:19N 36°56' W 009°41'911.6
2017-Mar-06 04:32N 37°05' W 009°44'1111.9
2017-Mar-06 03:34N 37°16' W 009°47'1211.9
2017-Mar-06 02:34N 37°28' W 009°51'1211.7
2017-Mar-06 01:34N 37°39' W 009°54'1211.7
2017-Mar-06 00:34N 37°51' W 009°57'1212.0
2017-Mar-05 23:34N 38°02' W 010°01'1211.9
2017-Mar-05 22:33N 38°14' W 010°04'1111.5
2017-Mar-05 21:34N 38°25' W 010°07'1111.3
2017-Mar-05 20:34N 38°36' W 010°10'1111.1
2017-Mar-05 19:34N 38°47' W 010°12'1110.8
2017-Mar-05 18:34N 38°58' W 010°12'1110.7
2017-Mar-05 17:33N 39°09' W 010°12'1111.2
2017-Mar-05 16:34N 39°20' W 010°12'  
2017-Mar-02 17:08N 49°46' W 003°34'712.1
2017-Mar-02 16:34N 49°49' W 003°24'1312.9
2017-Mar-02 15:31N 49°55' W 003°05'1312.9
2017-Mar-02 14:32N 49°59' W 002°47'2510.5
2017-Mar-02 12:09N 50°06' W 002°09'5 7.7
2017-Mar-02 11:30N 50°08' W 002°02'6 6.4
2017-Mar-02 10:33N 50°10' W 001°53'6 5.6
2017-Mar-02 09:34N 50°11' W 001°44'6 6.0
2017-Mar-02 08:34N 50°12' W 001°35'8 7.6
2017-Mar-02 07:33N 50°14' W 001°24'10 9.8
2017-Mar-02 06:33N 50°17' W 001°09'1111.4
2017-Mar-02 05:33N 50°20' W 000°52'2311.6
2017-Mar-02 03:33N 50°26' W 000°17'1010.3
2017-Mar-02 02:34N 50°29' W 000°01'10 9.5
2017-Mar-02 01:30N 50°32' E 000°14'8 8.6
2017-Mar-02 00:33N 50°34' E 000°27'8 8.0
2017-Mar-01 23:33N 50°37' E 000°38'8 8.3
2017-Mar-01 22:34N 50°42' E 000°49'1210.1
2017-Mar-01 21:23N 50°48' E 001°04'1012.5
2017-Mar-01 20:33N 50°54' E 001°17'1313.2
2017-Mar-01 19:34N 51°04' E 001°32'1211.9
2017-Mar-01 18:34N 51°13' E 001°45'1010.3
2017-Mar-01 17:33N 51°22' E 001°53'9 9.3
2017-Mar-01 16:34N 51°29' E 002°01'9 8.6
2017-Mar-01 15:34N 51°36' E 002°10'59 9.9
2017-Mar-01 09:34N 52°02' E 003°36'1010.2
2017-Mar-01 08:33N 52°02' E 003°53'8 7.7
2017-Mar-01 07:34N 51°59' E 004°04'6 5.8
2017-Mar-01 06:34N 51°56' E 004°12'1 0.5
2017-Mar-01 05:32N 51°55' E 004°12'0 0.0
2017-Mar-01 04:32N 51°55' E 004°12'0 0.0
2017-Mar-01 03:32N 51°55' E 004°12'0 0.0
2017-Mar-01 02:32N 51°55' E 004°12'0 0.0
2017-Mar-01 01:32N 51°55' E 004°12'0 0.0
2017-Mar-01 00:29N 51°55' E 004°12'0 0.0
2017-Feb-28 23:32N 51°55' E 004°12'0 0.0
2017-Feb-28 22:29N 51°55' E 004°12'0 0.0
2017-Feb-28 21:32N 51°55' E 004°12'0 0.0
2017-Feb-28 20:29N 51°55' E 004°12'0 0.0
2017-Feb-28 19:29N 51°55' E 004°12'0 0.0
2017-Feb-28 18:32N 51°55' E 004°12'0 0.0
2017-Feb-28 17:32N 51°55' E 004°12'0 0.0
2017-Feb-28 16:32N 51°55' E 004°12'  
Track history (hours):
 
Tides and Currents Weather Stations Pressure Air Temp Water Temp Dewpoint Dewpoint Depression Visibility Wind Speed Wind Dir Waves Ship Positions

Aegean Navigator

Last reported at 2017-Mar-10 16:11 UTC. Time now 2017-Mar-27 08:42 UTC.
Position N 35°52' E 015°45'.
Warning: this ship's position is 16 days out of date.

Length 274 m; draft 16.7 m.

Type: Ship. MMSI: 240634000.

Date/timePositionNaut miles runAvg speedWind from/ knotsBaromVisibWave heightAir tempDewpointWater temp
2017-Mar-10 16:11N 35°52' E 015°45'711.6
2017-Mar-10 15:33N 35°54' E 015°36'1211.6
2017-Mar-10 14:34N 35°57' E 015°22'1211.6
2017-Mar-10 13:34N 36°02' E 015°09'1111.3
2017-Mar-10 12:33N 36°04' E 014°55'1211.7
2017-Mar-10 11:33N 36°09' E 014°42'1211.8
2017-Mar-10 10:34N 36°14' E 014°29'1211.8
2017-Mar-10 09:33N 36°19' E 014°16'1211.9
2017-Mar-10 08:34N 36°24' E 014°02'1211.7
2017-Mar-10 07:33N 36°28' E 013°49'1211.7
2017-Mar-10 06:33N 36°33' E 013°35'1212.0
2017-Mar-10 05:34N 36°37' E 013°22'1111.4
2017-Mar-10 04:34N 36°42' E 013°09'1111.3
2017-Mar-10 03:33N 36°46' E 012°55'  
2017-Mar-07 22:31N 36°37' W 000°01'1111.4
2017-Mar-07 21:33N 36°35' W 000°14'1111.1
2017-Mar-07 20:34N 36°33' W 000°28'1411.4
2017-Mar-07 19:20N 36°30' W 000°45'19212.0
2017-Mar-07 03:19N 36°02' W 004°41'1012.5
2017-Mar-07 02:33N 36°02' W 004°53'1312.6
2017-Mar-07 01:33N 36°01' W 005°08'1514.8
2017-Mar-07 00:33N 35°58' W 005°26'1514.6
2017-Mar-06 23:33N 35°55' W 005°44'20011.0
2017-Mar-06 05:19N 36°56' W 009°41'911.6
2017-Mar-06 04:32N 37°05' W 009°44'1111.9
2017-Mar-06 03:34N 37°16' W 009°47'1211.9
2017-Mar-06 02:34N 37°28' W 009°51'1211.7
2017-Mar-06 01:34N 37°39' W 009°54'1211.7
2017-Mar-06 00:34N 37°51' W 009°57'1212.0
2017-Mar-05 23:34N 38°02' W 010°01'1211.9
2017-Mar-05 22:33N 38°14' W 010°04'1111.5
2017-Mar-05 21:34N 38°25' W 010°07'1111.3
2017-Mar-05 20:34N 38°36' W 010°10'1111.1
2017-Mar-05 19:34N 38°47' W 010°12'1110.8
2017-Mar-05 18:34N 38°58' W 010°12'1110.7
2017-Mar-05 17:33N 39°09' W 010°12'1111.2
2017-Mar-05 16:34N 39°20' W 010°12'  
2017-Mar-02 17:08N 49°46' W 003°34'712.1
2017-Mar-02 16:34N 49°49' W 003°24'1312.9
2017-Mar-02 15:31N 49°55' W 003°05'1312.9
2017-Mar-02 14:32N 49°59' W 002°47'2510.5
2017-Mar-02 12:09N 50°06' W 002°09'5 7.7
2017-Mar-02 11:30N 50°08' W 002°02'6 6.4
2017-Mar-02 10:33N 50°10' W 001°53'6 5.6
2017-Mar-02 09:34N 50°11' W 001°44'6 6.0
2017-Mar-02 08:34N 50°12' W 001°35'8 7.6
2017-Mar-02 07:33N 50°14' W 001°24'10 9.8
2017-Mar-02 06:33N 50°17' W 001°09'1111.4
2017-Mar-02 05:33N 50°20' W 000°52'2311.6
2017-Mar-02 03:33N 50°26' W 000°17'1010.3
2017-Mar-02 02:34N 50°29' W 000°01'10 9.5
2017-Mar-02 01:30N 50°32' E 000°14'8 8.6
2017-Mar-02 00:33N 50°34' E 000°27'8 8.0
2017-Mar-01 23:33N 50°37' E 000°38'8 8.3
2017-Mar-01 22:34N 50°42' E 000°49'1210.1
2017-Mar-01 21:23N 50°48' E 001°04'1012.5
2017-Mar-01 20:33N 50°54' E 001°17'1313.2
2017-Mar-01 19:34N 51°04' E 001°32'1211.9
2017-Mar-01 18:34N 51°13' E 001°45'1010.3
2017-Mar-01 17:33N 51°22' E 001°53'9 9.3
2017-Mar-01 16:34N 51°29' E 002°01'9 8.6
2017-Mar-01 15:34N 51°36' E 002°10'59 9.9
2017-Mar-01 09:34N 52°02' E 003°36'1010.2
2017-Mar-01 08:33N 52°02' E 003°53'8 7.7
2017-Mar-01 07:34N 51°59' E 004°04'6 5.8
2017-Mar-01 06:34N 51°56' E 004°12'1 0.5
2017-Mar-01 05:32N 51°55' E 004°12'0 0.0
2017-Mar-01 04:32N 51°55' E 004°12'0 0.0
2017-Mar-01 03:32N 51°55' E 004°12'0 0.0
2017-Mar-01 02:32N 51°55' E 004°12'0 0.0
2017-Mar-01 01:32N 51°55' E 004°12'0 0.0
2017-Mar-01 00:29N 51°55' E 004°12'0 0.0
2017-Feb-28 23:32N 51°55' E 004°12'0 0.0
2017-Feb-28 22:29N 51°55' E 004°12'0 0.0
2017-Feb-28 21:32N 51°55' E 004°12'0 0.0
2017-Feb-28 20:29N 51°55' E 004°12'0 0.0
2017-Feb-28 19:29N 51°55' E 004°12'0 0.0
2017-Feb-28 18:32N 51°55' E 004°12'0 0.0
2017-Feb-28 17:32N 51°55' E 004°12'0 0.0
2017-Feb-28 16:32N 51°55' E 004°12'  

Dump ship's entire track history